sensor_id;sensor_type;location;lat;lon;timestamp;pressure;altitude;pressure_sealevel;temperature;humidity
59686;BME280;45554;51.096;16.976;2023-09-19T00:01:08;99459.51;;;18.79;81.82
59686;BME280;45554;51.096;16.976;2023-09-19T00:03:39;99465.30;;;18.73;81.66
59686;BME280;45554;51.096;16.976;2023-09-19T00:06:10;99470.84;;;18.69;82.44
59686;BME280;45554;51.096;16.976;2023-09-19T00:08:41;99469.86;;;18.64;82.75
59686;BME280;45554;51.096;16.976;2023-09-19T00:11:12;99466.79;;;18.60;83.29
59686;BME280;45554;51.096;16.976;2023-09-19T00:13:39;99463.24;;;18.56;82.95
59686;BME280;45554;51.096;16.976;2023-09-19T00:16:11;99459.81;;;18.51;83.01
59686;BME280;45554;51.096;16.976;2023-09-19T00:18:40;99462.15;;;18.46;83.83
59686;BME280;45554;51.096;16.976;2023-09-19T00:21:08;99466.58;;;18.41;84.62
59686;BME280;45554;51.096;16.976;2023-09-19T00:23:38;99460.59;;;18.36;84.32
59686;BME280;45554;51.096;16.976;2023-09-19T00:26:08;99464.69;;;18.33;84.14
59686;BME280;45554;51.096;16.976;2023-09-19T00:28:36;99470.83;;;18.30;84.87
59686;BME280;45554;51.096;16.976;2023-09-19T00:31:09;99471.21;;;18.28;84.34
59686;BME280;45554;51.096;16.976;2023-09-19T00:33:38;99469.25;;;18.25;84.89
59686;BME280;45554;51.096;16.976;2023-09-19T00:36:06;99477.74;;;18.25;84.39
59686;BME280;45554;51.096;16.976;2023-09-19T00:38:34;99476.61;;;18.23;84.67
59686;BME280;45554;51.096;16.976;2023-09-19T00:41:02;99475.73;;;18.23;84.49
59686;BME280;45554;51.096;16.976;2023-09-19T00:43:30;99463.58;;;18.22;84.42
59686;BME280;45554;51.096;16.976;2023-09-19T00:46:02;99463.04;;;18.21;84.35
59686;BME280;45554;51.096;16.976;2023-09-19T00:48:30;99462.58;;;18.20;84.25
59686;BME280;45554;51.096;16.976;2023-09-19T00:51:02;99460.49;;;18.20;84.31
59686;BME280;45554;51.096;16.976;2023-09-19T00:53:32;99454.58;;;18.20;84.38
59686;BME280;45554;51.096;16.976;2023-09-19T00:56:03;99455.29;;;18.20;84.55
59686;BME280;45554;51.096;16.976;2023-09-19T00:58:36;99453.33;;;18.20;84.48
59686;BME280;45554;51.096;16.976;2023-09-19T01:01:05;99455.55;;;18.21;84.69
59686;BME280;45554;51.096;16.976;2023-09-19T01:03:38;99461.69;;;18.22;84.83
59686;BME280;45554;51.096;16.976;2023-09-19T01:06:07;99457.35;;;18.21;84.73
59686;BME280;45554;51.096;16.976;2023-09-19T01:08:39;99459.28;;;18.21;84.93
59686;BME280;45554;51.096;16.976;2023-09-19T01:11:21;99456.30;;;18.21;85.45
59686;BME280;45554;51.096;16.976;2023-09-19T01:25:34;99463.78;;;18.10;87.13
59686;BME280;45554;51.096;16.976;2023-09-19T01:30:46;99460.44;;;17.98;89.24
59686;BME280;45554;51.096;16.976;2023-09-19T01:33:14;99456.86;;;17.93;88.60
59686;BME280;45554;51.096;16.976;2023-09-19T01:35:43;99460.73;;;17.87;89.32
59686;BME280;45554;51.096;16.976;2023-09-19T01:38:10;99461.70;;;17.80;90.25
59686;BME280;45554;51.096;16.976;2023-09-19T01:40:41;99460.58;;;17.73;90.55
59686;BME280;45554;51.096;16.976;2023-09-19T01:43:33;99452.34;;;17.67;90.06
59686;BME280;45554;51.096;16.976;2023-09-19T01:46:16;99445.42;;;17.60;90.08
59686;BME280;45554;51.096;16.976;2023-09-19T01:49:15;99449.27;;;17.55;90.71
59686;BME280;45554;51.096;16.976;2023-09-19T01:52:10;99446.09;;;17.49;90.88
59686;BME280;45554;51.096;16.976;2023-09-19T01:54:50;99445.48;;;17.45;91.56
59686;BME280;45554;51.096;16.976;2023-09-19T01:57:28;99444.38;;;17.41;91.57
59686;BME280;45554;51.096;16.976;2023-09-19T02:00:07;99450.11;;;17.39;91.64
59686;BME280;45554;51.096;16.976;2023-09-19T02:02:44;99451.35;;;17.37;92.62
59686;BME280;45554;51.096;16.976;2023-09-19T02:05:13;99453.05;;;17.36;92.07
59686;BME280;45554;51.096;16.976;2023-09-19T02:07:41;99448.66;;;17.34;92.19
59686;BME280;45554;51.096;16.976;2023-09-19T02:10:09;99448.83;;;17.34;92.44
59686;BME280;45554;51.096;16.976;2023-09-19T02:12:40;99445.00;;;17.33;92.31
59686;BME280;45554;51.096;16.976;2023-09-19T02:15:09;99446.45;;;17.33;92.31
59686;BME280;45554;51.096;16.976;2023-09-19T02:17:37;99443.75;;;17.31;92.31
59686;BME280;45554;51.096;16.976;2023-09-19T02:20:06;99443.02;;;17.32;92.52
59686;BME280;45554;51.096;16.976;2023-09-19T02:22:37;99441.16;;;17.33;92.70
59686;BME280;45554;51.096;16.976;2023-09-19T02:25:06;99435.55;;;17.32;92.45
59686;BME280;45554;51.096;16.976;2023-09-19T02:27:36;99438.06;;;17.32;92.52
59686;BME280;45554;51.096;16.976;2023-09-19T02:30:06;99441.79;;;17.32;92.66
59686;BME280;45554;51.096;16.976;2023-09-19T02:32:34;99439.70;;;17.31;92.78
59686;BME280;45554;51.096;16.976;2023-09-19T02:35:07;99444.48;;;17.33;92.95
59686;BME280;45554;51.096;16.976;2023-09-19T02:37:35;99439.58;;;17.32;92.95
59686;BME280;45554;51.096;16.976;2023-09-19T02:40:05;99444.33;;;17.33;92.99
59686;BME280;45554;51.096;16.976;2023-09-19T02:42:53;99444.86;;;17.33;93.02
59686;BME280;45554;51.096;16.976;2023-09-19T02:45:23;99442.48;;;17.32;93.07
59686;BME280;45554;51.096;16.976;2023-09-19T02:47:51;99434.27;;;17.31;93.25
59686;BME280;45554;51.096;16.976;2023-09-19T02:50:22;99431.30;;;17.30;93.52
59686;BME280;45554;51.096;16.976;2023-09-19T02:52:50;99426.98;;;17.31;93.71
59686;BME280;45554;51.096;16.976;2023-09-19T02:55:19;99427.78;;;17.32;93.73
59686;BME280;45554;51.096;16.976;2023-09-19T02:57:49;99425.38;;;17.31;93.89
59686;BME280;45554;51.096;16.976;2023-09-19T03:00:19;99422.20;;;17.31;94.07
59686;BME280;45554;51.096;16.976;2023-09-19T03:02:54;99420.40;;;17.31;94.15
59686;BME280;45554;51.096;16.976;2023-09-19T03:05:23;99417.08;;;17.31;94.26
59686;BME280;45554;51.096;16.976;2023-09-19T03:07:52;99419.86;;;17.29;94.10
59686;BME280;45554;51.096;16.976;2023-09-19T03:10:21;99425.34;;;17.27;94.12
59686;BME280;45554;51.096;16.976;2023-09-19T03:12:50;99427.33;;;17.27;94.18
59686;BME280;45554;51.096;16.976;2023-09-19T03:15:18;99427.48;;;17.26;94.22
59686;BME280;45554;51.096;16.976;2023-09-19T03:17:48;99426.17;;;17.24;94.34
59686;BME280;45554;51.096;16.976;2023-09-19T03:20:20;99427.73;;;17.25;94.56
59686;BME280;45554;51.096;16.976;2023-09-19T03:22:50;99423.94;;;17.24;94.52
59686;BME280;45554;51.096;16.976;2023-09-19T03:25:18;99423.34;;;17.23;94.77
59686;BME280;45554;51.096;16.976;2023-09-19T03:27:49;99427.98;;;17.22;94.98
59686;BME280;45554;51.096;16.976;2023-09-19T03:30:18;99431.23;;;17.22;95.25
59686;BME280;45554;51.096;16.976;2023-09-19T03:32:47;99430.15;;;17.20;95.08
59686;BME280;45554;51.096;16.976;2023-09-19T03:35:18;99435.30;;;17.20;95.08
59686;BME280;45554;51.096;16.976;2023-09-19T03:37:46;99438.46;;;17.18;94.92
59686;BME280;45554;51.096;16.976;2023-09-19T03:40:14;99436.36;;;17.18;95.16
59686;BME280;45554;51.096;16.976;2023-09-19T03:42:43;99436.55;;;17.18;95.46
59686;BME280;45554;51.096;16.976;2023-09-19T03:45:13;99439.30;;;17.17;95.49
59686;BME280;45554;51.096;16.976;2023-09-19T03:47:49;99443.80;;;17.16;95.81
59686;BME280;45554;51.096;16.976;2023-09-19T03:50:20;99439.48;;;17.15;96.03
59686;BME280;45554;51.096;16.976;2023-09-19T03:52:48;99439.23;;;17.14;95.96
59686;BME280;45554;51.096;16.976;2023-09-19T03:55:16;99440.38;;;17.13;96.19
59686;BME280;45554;51.096;16.976;2023-09-19T03:57:47;99439.89;;;17.12;96.17
59686;BME280;45554;51.096;16.976;2023-09-19T04:00:18;99438.41;;;17.11;96.42
59686;BME280;45554;51.096;16.976;2023-09-19T04:02:51;99434.88;;;17.09;96.33
59686;BME280;45554;51.096;16.976;2023-09-19T04:05:20;99432.83;;;17.08;96.31
59686;BME280;45554;51.096;16.976;2023-09-19T04:07:48;99430.31;;;17.09;96.39
59686;BME280;45554;51.096;16.976;2023-09-19T04:10:35;99427.48;;;17.07;96.31
59686;BME280;45554;51.096;16.976;2023-09-19T04:13:03;99430.62;;;17.06;96.46
59686;BME280;45554;51.096;16.976;2023-09-19T04:15:32;99428.02;;;17.05;96.55
59686;BME280;45554;51.096;16.976;2023-09-19T04:18:00;99427.06;;;17.04;96.48
59686;BME280;45554;51.096;16.976;2023-09-19T04:20:29;99424.70;;;17.03;96.36
59686;BME280;45554;51.096;16.976;2023-09-19T04:22:57;99424.48;;;17.01;96.36
59686;BME280;45554;51.096;16.976;2023-09-19T04:25:25;99428.10;;;17.00;96.53
59686;BME280;45554;51.096;16.976;2023-09-19T04:27:55;99424.66;;;16.99;96.69
59686;BME280;45554;51.096;16.976;2023-09-19T04:30:25;99429.84;;;16.99;96.73
59686;BME280;45554;51.096;16.976;2023-09-19T04:32:54;99432.19;;;16.98;96.75
59686;BME280;45554;51.096;16.976;2023-09-19T04:35:22;99434.89;;;16.97;96.80
59686;BME280;45554;51.096;16.976;2023-09-19T04:37:50;99438.66;;;16.97;96.91
59686;BME280;45554;51.096;16.976;2023-09-19T04:40:18;99440.52;;;16.96;96.88
59686;BME280;45554;51.096;16.976;2023-09-19T04:42:54;99440.52;;;16.94;96.88
59686;BME280;45554;51.096;16.976;2023-09-19T04:45:28;99433.90;;;16.95;97.00
59686;BME280;45554;51.096;16.976;2023-09-19T04:47:56;99440.30;;;16.95;96.95
59686;BME280;45554;51.096;16.976;2023-09-19T04:50:24;99449.16;;;16.95;97.21
59686;BME280;45554;51.096;16.976;2023-09-19T04:52:55;99452.16;;;16.95;97.21
59686;BME280;45554;51.096;16.976;2023-09-19T04:55:23;99455.36;;;16.94;97.19
59686;BME280;45554;51.096;16.976;2023-09-19T04:57:51;99453.78;;;16.94;97.03
59686;BME280;45554;51.096;16.976;2023-09-19T05:00:21;99451.95;;;16.95;97.10
59686;BME280;45554;51.096;16.976;2023-09-19T05:02:55;99450.17;;;16.95;97.06
59686;BME280;45554;51.096;16.976;2023-09-19T05:05:24;99448.63;;;16.96;97.05
59686;BME280;45554;51.096;16.976;2023-09-19T05:07:54;99456.73;;;16.99;97.00
59686;BME280;45554;51.096;16.976;2023-09-19T05:10:23;99459.02;;;17.01;96.95
59686;BME280;45554;51.096;16.976;2023-09-19T05:12:55;99454.30;;;17.03;96.97
59686;BME280;45554;51.096;16.976;2023-09-19T05:15:23;99455.10;;;17.05;96.92
59686;BME280;45554;51.096;16.976;2023-09-19T05:17:52;99456.73;;;17.08;96.99
59686;BME280;45554;51.096;16.976;2023-09-19T05:20:25;99460.53;;;17.11;97.04
59686;BME280;45554;51.096;16.976;2023-09-19T05:23:06;99463.44;;;17.14;97.07
59686;BME280;45554;51.096;16.976;2023-09-19T05:25:40;99458.73;;;17.17;96.94
59686;BME280;45554;51.096;16.976;2023-09-19T05:28:10;99464.11;;;17.20;96.85
59686;BME280;45554;51.096;16.976;2023-09-19T05:30:40;99472.33;;;17.23;96.72
59686;BME280;45554;51.096;16.976;2023-09-19T05:33:09;99479.75;;;17.25;96.78
59686;BME280;45554;51.096;16.976;2023-09-19T05:35:37;99481.64;;;17.26;96.83
59686;BME280;45554;51.096;16.976;2023-09-19T05:38:07;99483.99;;;17.29;96.59
59686;BME280;45554;51.096;16.976;2023-09-19T05:40:40;99488.70;;;17.30;96.51
59686;BME280;45554;51.096;16.976;2023-09-19T05:43:10;99493.15;;;17.30;96.63
59686;BME280;45554;51.096;16.976;2023-09-19T05:45:37;99492.61;;;17.28;96.55
59686;BME280;45554;51.096;16.976;2023-09-19T05:48:10;99500.09;;;17.31;96.40
59686;BME280;45554;51.096;16.976;2023-09-19T05:50:39;99499.23;;;17.33;96.70
59686;BME280;45554;51.096;16.976;2023-09-19T05:53:08;99502.92;;;17.33;97.05
59686;BME280;45554;51.096;16.976;2023-09-19T05:55:40;99509.11;;;17.33;96.80
59686;BME280;45554;51.096;16.976;2023-09-19T05:58:08;99514.58;;;17.35;96.84
59686;BME280;45554;51.096;16.976;2023-09-19T06:00:38;99512.80;;;17.37;96.87
59686;BME280;45554;51.096;16.976;2023-09-19T06:03:07;99520.48;;;17.40;97.21
59686;BME280;45554;51.096;16.976;2023-09-19T06:05:35;99520.58;;;17.42;97.27
59686;BME280;45554;51.096;16.976;2023-09-19T06:08:04;99521.65;;;17.47;97.21
59686;BME280;45554;51.096;16.976;2023-09-19T06:10:35;99520.86;;;17.49;96.76
59686;BME280;45554;51.096;16.976;2023-09-19T06:13:04;99512.73;;;17.53;96.88
59686;BME280;45554;51.096;16.976;2023-09-19T06:15:40;99509.14;;;17.57;96.94
59686;BME280;45554;51.096;16.976;2023-09-19T06:18:11;99517.20;;;17.62;96.81
59686;BME280;45554;51.096;16.976;2023-09-19T06:20:43;99530.09;;;17.67;96.46
59686;BME280;45554;51.096;16.976;2023-09-19T06:23:13;99536.41;;;17.74;96.10
59686;BME280;45554;51.096;16.976;2023-09-19T06:25:41;99537.62;;;17.79;95.76
59686;BME280;45554;51.096;16.976;2023-09-19T06:28:10;99541.05;;;17.86;95.14
59686;BME280;45554;51.096;16.976;2023-09-19T06:30:40;99536.48;;;17.91;94.78
59686;BME280;45554;51.096;16.976;2023-09-19T06:33:07;99540.95;;;17.96;94.21
59686;BME280;45554;51.096;16.976;2023-09-19T06:35:36;99540.42;;;18.00;93.20
59686;BME280;45554;51.096;16.976;2023-09-19T06:38:04;99544.29;;;18.04;92.96
59686;BME280;45554;51.096;16.976;2023-09-19T06:40:34;99545.83;;;18.07;92.21
59686;BME280;45554;51.096;16.976;2023-09-19T06:43:02;99547.18;;;18.09;92.01
59686;BME280;45554;51.096;16.976;2023-09-19T06:45:31;99543.99;;;18.13;91.56
59686;BME280;45554;51.096;16.976;2023-09-19T06:48:00;99549.11;;;18.17;90.89
59686;BME280;45554;51.096;16.976;2023-09-19T06:50:30;99550.45;;;18.21;89.99
59686;BME280;45554;51.096;16.976;2023-09-19T06:53:01;99554.52;;;18.27;89.61
59686;BME280;45554;51.096;16.976;2023-09-19T06:55:30;99558.44;;;18.34;88.59
59686;BME280;45554;51.096;16.976;2023-09-19T06:58:00;99561.06;;;18.39;88.34
59686;BME280;45554;51.096;16.976;2023-09-19T07:00:28;99560.59;;;18.44;87.58
59686;BME280;45554;51.096;16.976;2023-09-19T07:03:00;99568.52;;;18.50;87.52
59686;BME280;45554;51.096;16.976;2023-09-19T07:05:30;99566.70;;;18.54;86.98
59686;BME280;45554;51.096;16.976;2023-09-19T07:08:01;99571.52;;;18.59;86.43
59686;BME280;45554;51.096;16.976;2023-09-19T07:10:30;99577.80;;;18.64;85.81
59686;BME280;45554;51.096;16.976;2023-09-19T07:13:04;99587.31;;;18.68;84.73
59686;BME280;45554;51.096;16.976;2023-09-19T07:15:38;99591.30;;;18.74;84.63
59686;BME280;45554;51.096;16.976;2023-09-19T07:18:09;99596.48;;;18.83;84.30
59686;BME280;45554;51.096;16.976;2023-09-19T07:20:39;99597.85;;;18.92;84.37
59686;BME280;45554;51.096;16.976;2023-09-19T07:23:07;99603.50;;;19.03;83.41
59686;BME280;45554;51.096;16.976;2023-09-19T07:25:35;99599.61;;;19.12;81.97
59686;BME280;45554;51.096;16.976;2023-09-19T07:28:04;99603.60;;;19.24;81.89
59686;BME280;45554;51.096;16.976;2023-09-19T07:30:36;99605.05;;;19.36;81.74
59686;BME280;45554;51.096;16.976;2023-09-19T07:33:05;99607.71;;;19.48;80.24
59686;BME280;45554;51.096;16.976;2023-09-19T07:35:33;99608.89;;;19.59;78.98
59686;BME280;45554;51.096;16.976;2023-09-19T07:38:04;99609.59;;;19.73;79.06
59686;BME280;45554;51.096;16.976;2023-09-19T07:40:32;99614.90;;;19.87;78.55
59686;BME280;45554;51.096;16.976;2023-09-19T07:43:00;99622.63;;;19.96;76.77
59686;BME280;45554;51.096;16.976;2023-09-19T07:45:29;99619.65;;;20.00;76.41
59686;BME280;45554;51.096;16.976;2023-09-19T07:47:58;99621.41;;;20.00;76.63
59686;BME280;45554;51.096;16.976;2023-09-19T07:50:29;99624.01;;;19.99;75.85
59686;BME280;45554;51.096;16.976;2023-09-19T07:52:57;99621.52;;;19.97;76.06
59686;BME280;45554;51.096;16.976;2023-09-19T07:55:27;99624.16;;;19.96;76.26
59686;BME280;45554;51.096;16.976;2023-09-19T07:57:55;99627.98;;;19.95;75.46
59686;BME280;45554;51.096;16.976;2023-09-19T08:00:22;99633.13;;;19.95;75.34
59686;BME280;45554;51.096;16.976;2023-09-19T08:02:50;99631.59;;;19.94;75.01
59686;BME280;45554;51.096;16.976;2023-09-19T08:05:29;99639.40;;;19.96;74.32
59686;BME280;45554;51.096;16.976;2023-09-19T08:07:57;99640.31;;;19.99;74.62
59686;BME280;45554;51.096;16.976;2023-09-19T08:10:28;99649.33;;;20.05;74.67
59686;BME280;45554;51.096;16.976;2023-09-19T08:13:09;99647.55;;;20.13;73.89
59686;BME280;45554;51.096;16.976;2023-09-19T08:15:45;99652.14;;;20.22;73.35
59686;BME280;45554;51.096;16.976;2023-09-19T08:18:16;99650.65;;;20.29;72.95
59686;BME280;45554;51.096;16.976;2023-09-19T08:20:52;99656.12;;;20.38;73.41
59686;BME280;45554;51.096;16.976;2023-09-19T08:23:21;99661.20;;;20.49;72.95
59686;BME280;45554;51.096;16.976;2023-09-19T08:25:49;99667.24;;;20.59;72.59
59686;BME280;45554;51.096;16.976;2023-09-19T08:28:17;99664.55;;;20.61;71.34
59686;BME280;45554;51.096;16.976;2023-09-19T08:30:54;99668.55;;;20.65;71.60
59686;BME280;45554;51.096;16.976;2023-09-19T08:33:22;99672.54;;;20.68;71.43
59686;BME280;45554;51.096;16.976;2023-09-19T08:35:51;99669.65;;;20.70;71.00
59686;BME280;45554;51.096;16.976;2023-09-19T08:38:19;99675.25;;;20.71;70.81
59686;BME280;45554;51.096;16.976;2023-09-19T08:40:47;99675.51;;;20.72;70.72
59686;BME280;45554;51.096;16.976;2023-09-19T08:43:21;99677.11;;;20.72;70.60
59686;BME280;45554;51.096;16.976;2023-09-19T08:45:49;99673.36;;;20.69;70.26
59686;BME280;45554;51.096;16.976;2023-09-19T08:48:23;99677.40;;;20.66;70.58
59686;BME280;45554;51.096;16.976;2023-09-19T08:51:22;99686.34;;;20.61;70.37
59686;BME280;45554;51.096;16.976;2023-09-19T08:54:03;99688.20;;;20.53;70.36
59686;BME280;45554;51.096;16.976;2023-09-19T08:56:35;99688.92;;;20.45;70.21
59686;BME280;45554;51.096;16.976;2023-09-19T08:59:07;99689.55;;;20.37;70.18
59686;BME280;45554;51.096;16.976;2023-09-19T09:01:41;99689.94;;;20.33;70.44
59686;BME280;45554;51.096;16.976;2023-09-19T09:04:10;99694.55;;;20.28;70.12
59686;BME280;45554;51.096;16.976;2023-09-19T09:06:42;99690.81;;;20.23;70.61
59686;BME280;45554;51.096;16.976;2023-09-19T09:09:11;99692.42;;;20.21;70.95
59686;BME280;45554;51.096;16.976;2023-09-19T09:11:40;99699.91;;;20.16;70.90
59686;BME280;45554;51.096;16.976;2023-09-19T09:14:08;99698.40;;;20.10;71.08
59686;BME280;45554;51.096;16.976;2023-09-19T09:16:37;99701.29;;;20.06;71.34
59686;BME280;45554;51.096;16.976;2023-09-19T09:19:08;99702.75;;;20.04;71.20
59686;BME280;45554;51.096;16.976;2023-09-19T09:21:35;99709.23;;;20.07;71.24
59686;BME280;45554;51.096;16.976;2023-09-19T09:24:29;99712.47;;;20.10;71.05
59686;BME280;45554;51.096;16.976;2023-09-19T09:26:57;99717.34;;;20.21;71.18
59686;BME280;45554;51.096;16.976;2023-09-19T09:29:45;99720.86;;;20.32;70.82
59686;BME280;45554;51.096;16.976;2023-09-19T09:32:23;99712.35;;;20.38;70.23
59686;BME280;45554;51.096;16.976;2023-09-19T09:34:53;99720.60;;;20.48;70.35
59686;BME280;45554;51.096;16.976;2023-09-19T09:37:27;99720.03;;;20.50;70.30
59686;BME280;45554;51.096;16.976;2023-09-19T09:40:01;99722.05;;;20.58;70.03
59686;BME280;45554;51.096;16.976;2023-09-19T09:42:44;99723.16;;;20.66;70.00
59686;BME280;45554;51.096;16.976;2023-09-19T09:45:19;99724.29;;;20.76;70.11
59686;BME280;45554;51.096;16.976;2023-09-19T09:48:06;99733.98;;;20.87;69.15
59686;BME280;45554;51.096;16.976;2023-09-19T09:50:57;99730.10;;;20.88;68.28
59686;BME280;45554;51.096;16.976;2023-09-19T09:53:30;99736.13;;;21.00;67.53
59686;BME280;45554;51.096;16.976;2023-09-19T09:56:08;99735.75;;;21.04;67.41
59686;BME280;45554;51.096;16.976;2023-09-19T09:58:51;99732.17;;;21.10;67.41
59686;BME280;45554;51.096;16.976;2023-09-19T10:01:24;99730.58;;;21.22;67.37
59686;BME280;45554;51.096;16.976;2023-09-19T10:03:58;99742.02;;;21.35;65.93
59686;BME280;45554;51.096;16.976;2023-09-19T10:06:40;99736.72;;;21.46;65.86
59686;BME280;45554;51.096;16.976;2023-09-19T10:09:15;99744.64;;;21.61;65.37
59686;BME280;45554;51.096;16.976;2023-09-19T10:11:48;99746.79;;;21.76;64.74
59686;BME280;45554;51.096;16.976;2023-09-19T10:14:35;99742.55;;;21.87;63.57
59686;BME280;45554;51.096;16.976;2023-09-19T10:17:06;99744.70;;;21.90;63.85
59686;BME280;45554;51.096;16.976;2023-09-19T10:19:42;99746.83;;;21.89;63.60
59686;BME280;45554;51.096;16.976;2023-09-19T10:22:15;99744.48;;;21.75;63.19
59686;BME280;45554;51.096;16.976;2023-09-19T10:24:45;99745.92;;;21.60;63.50
59686;BME280;45554;51.096;16.976;2023-09-19T10:27:29;99752.09;;;21.45;63.77
59686;BME280;45554;51.096;16.976;2023-09-19T10:29:58;99760.94;;;21.34;63.90
59686;BME280;45554;51.096;16.976;2023-09-19T10:32:28;99763.95;;;21.23;63.98
59686;BME280;45554;51.096;16.976;2023-09-19T10:35:02;99766.61;;;21.11;63.43
59686;BME280;45554;51.096;16.976;2023-09-19T10:37:34;99774.83;;;21.05;62.85
59686;BME280;45554;51.096;16.976;2023-09-19T10:40:08;99775.02;;;21.00;62.39
59686;BME280;45554;51.096;16.976;2023-09-19T10:42:38;99776.60;;;21.06;62.47
59686;BME280;45554;51.096;16.976;2023-09-19T10:45:06;99783.92;;;21.18;60.85
59686;BME280;45554;51.096;16.976;2023-09-19T10:47:41;99778.55;;;21.23;59.98
59686;BME280;45554;51.096;16.976;2023-09-19T10:50:19;99775.58;;;21.26;60.12
59686;BME280;45554;51.096;16.976;2023-09-19T10:52:53;99770.36;;;21.30;60.28
59686;BME280;45554;51.096;16.976;2023-09-19T10:55:38;99793.21;;;21.28;58.85
59686;BME280;45554;51.096;16.976;2023-09-19T10:58:07;99778.55;;;21.25;59.06
59686;BME280;45554;51.096;16.976;2023-09-19T11:00:57;99787.34;;;21.28;58.58
59686;BME280;45554;51.096;16.976;2023-09-19T11:03:41;99782.09;;;21.30;57.69
59686;BME280;45554;51.096;16.976;2023-09-19T11:06:19;99774.71;;;21.38;58.75
59686;BME280;45554;51.096;16.976;2023-09-19T11:09:04;99769.11;;;21.48;59.20
59686;BME280;45554;51.096;16.976;2023-09-19T11:11:50;99771.65;;;21.49;59.19
59686;BME280;45554;51.096;16.976;2023-09-19T11:30:45;99770.48;;;22.22;54.64
59686;BME280;45554;51.096;16.976;2023-09-19T11:33:33;99767.17;;;22.37;53.67
59686;BME280;45554;51.096;16.976;2023-09-19T11:36:14;99769.84;;;22.50;52.87
59686;BME280;45554;51.096;16.976;2023-09-19T11:46:27;99780.15;;;22.25;52.25
59686;BME280;45554;51.096;16.976;2023-09-19T11:49:05;99779.83;;;22.19;51.71
59686;BME280;45554;51.096;16.976;2023-09-19T11:51:42;99778.64;;;22.32;52.86
59686;BME280;45554;51.096;16.976;2023-09-19T11:54:13;99778.04;;;22.52;52.65
59686;BME280;45554;51.096;16.976;2023-09-19T11:56:48;99779.64;;;22.71;51.73
59686;BME280;45554;51.096;16.976;2023-09-19T11:59:23;99779.54;;;22.83;50.00
59686;BME280;45554;51.096;16.976;2023-09-19T12:01:53;99781.25;;;23.02;49.56
59686;BME280;45554;51.096;16.976;2023-09-19T12:04:46;99775.20;;;23.20;49.01
59686;BME280;45554;51.096;16.976;2023-09-19T12:07:17;99779.61;;;23.41;48.41
59686;BME280;45554;51.096;16.976;2023-09-19T12:09:51;99782.71;;;23.51;46.68
59686;BME280;45554;51.096;16.976;2023-09-19T12:12:32;99789.02;;;23.59;45.75
59686;BME280;45554;51.096;16.976;2023-09-19T12:15:01;99783.58;;;23.67;45.17
59686;BME280;45554;51.096;16.976;2023-09-19T12:17:41;99786.30;;;23.76;44.54
59686;BME280;45554;51.096;16.976;2023-09-19T12:20:11;99785.76;;;23.83;43.93
59686;BME280;45554;51.096;16.976;2023-09-19T12:22:46;99776.64;;;23.88;44.12
59686;BME280;45554;51.096;16.976;2023-09-19T12:25:15;99771.23;;;23.90;43.71
59686;BME280;45554;51.096;16.976;2023-09-19T12:27:47;99781.45;;;23.87;43.48
59686;BME280;45554;51.096;16.976;2023-09-19T12:30:15;99777.91;;;23.89;43.44
59686;BME280;45554;51.096;16.976;2023-09-19T12:32:48;99774.43;;;23.91;43.15
59686;BME280;45554;51.096;16.976;2023-09-19T12:35:28;99770.58;;;23.99;43.37
59686;BME280;45554;51.096;16.976;2023-09-19T12:37:58;99771.56;;;24.10;42.89
59686;BME280;45554;51.096;16.976;2023-09-19T12:40:26;99772.61;;;24.20;42.34
59686;BME280;45554;51.096;16.976;2023-09-19T12:43:01;99776.08;;;24.26;41.76
59686;BME280;45554;51.096;16.976;2023-09-19T12:45:31;99769.35;;;24.34;41.87
59686;BME280;45554;51.096;16.976;2023-09-19T12:51:09;99774.73;;;24.35;40.30
59686;BME280;45554;51.096;16.976;2023-09-19T12:53:42;99780.59;;;24.40;40.39
59686;BME280;45554;51.096;16.976;2023-09-19T12:56:13;99771.59;;;24.42;40.16
59686;BME280;45554;51.096;16.976;2023-09-19T12:58:58;99757.55;;;24.46;41.01
59686;BME280;45554;51.096;16.976;2023-09-19T13:01:29;99758.30;;;24.57;40.66
59686;BME280;45554;51.096;16.976;2023-09-19T13:04:11;99757.33;;;24.66;39.90
59686;BME280;45554;51.096;16.976;2023-09-19T13:06:54;99751.20;;;24.77;39.98
59686;BME280;45554;51.096;16.976;2023-09-19T13:09:25;99751.25;;;24.84;39.74
59686;BME280;45554;51.096;16.976;2023-09-19T13:12:04;99742.84;;;24.91;39.94
59686;BME280;45554;51.096;16.976;2023-09-19T13:14:34;99742.63;;;25.05;40.14
59686;BME280;45554;51.096;16.976;2023-09-19T13:17:08;99736.19;;;25.21;40.03
59686;BME280;45554;51.096;16.976;2023-09-19T13:19:49;99728.77;;;25.38;40.05
59686;BME280;45554;51.096;16.976;2023-09-19T13:25:20;99747.89;;;25.76;38.65
59686;BME280;45554;51.096;16.976;2023-09-19T13:27:55;99738.45;;;25.77;38.04
59686;BME280;45554;51.096;16.976;2023-09-19T13:30:27;99732.42;;;25.82;38.94
59686;BME280;45554;51.096;16.976;2023-09-19T13:33:09;99735.66;;;25.97;38.76
59686;BME280;45554;51.096;16.976;2023-09-19T13:35:39;99734.63;;;26.07;38.17
59686;BME280;45554;51.096;16.976;2023-09-19T13:38:10;99730.37;;;26.19;38.52
59686;BME280;45554;51.096;16.976;2023-09-19T13:40:40;99727.89;;;26.28;38.22
59686;BME280;45554;51.096;16.976;2023-09-19T13:43:15;99727.89;;;26.41;38.05
59686;BME280;45554;51.096;16.976;2023-09-19T13:45:44;99729.70;;;26.50;37.88
59686;BME280;45554;51.096;16.976;2023-09-19T13:48:11;99727.29;;;26.62;37.70
59686;BME280;45554;51.096;16.976;2023-09-19T13:50:40;99723.91;;;26.77;37.28
59686;BME280;45554;51.096;16.976;2023-09-19T13:53:11;99730.25;;;26.91;37.10
59686;BME280;45554;51.096;16.976;2023-09-19T13:55:39;99727.48;;;26.99;36.93
59686;BME280;45554;51.096;16.976;2023-09-19T13:58:08;99728.17;;;27.03;36.07
59686;BME280;45554;51.096;16.976;2023-09-19T14:00:38;99720.65;;;27.02;36.15